createdAt,value
2019-05-14T00:02:04.850Z,98662.98
2019-05-14T00:04:36.624Z,98657.70
2019-05-14T00:07:08.801Z,98667.50
2019-05-14T00:09:41.363Z,98694.73
2019-05-14T00:12:13.386Z,98694.73
2019-05-14T00:14:45.410Z,98685.81
2019-05-14T00:17:17.163Z,98679.63
2019-05-14T00:20:05.933Z,98677.17
2019-05-14T00:22:23.332Z,98697.08
2019-05-14T00:24:55.043Z,98720.69
2019-05-14T00:27:27.164Z,98730.55
2019-05-14T00:29:59.122Z,98713.21
2019-05-14T00:32:31.986Z,98706.72
2019-05-14T00:35:03.548Z,98713.85
2019-05-14T00:37:35.531Z,98738.59
2019-05-14T00:40:07.206Z,98738.59
2019-05-14T00:42:41.138Z,98740.71
2019-05-14T00:45:12.383Z,98739.77
2019-05-14T00:47:43.864Z,98733.88
2019-05-14T00:50:15.432Z,98728.11
2019-05-14T00:52:47.251Z,98719.20
2019-05-14T00:55:19.187Z,98714.69
2019-05-14T00:57:52.234Z,98718.18
2019-05-14T01:00:23.834Z,98718.18
2019-05-14T01:02:55.655Z,98704.91
2019-05-14T01:05:27.233Z,98691.55
2019-05-14T01:08:01.901Z,98688.22
2019-05-14T01:10:33.598Z,98683.66
2019-05-14T01:13:04.978Z,98683.66
2019-05-14T01:15:36.461Z,98681.25
2019-05-14T01:18:08.073Z,98677.66
2019-05-14T01:20:41.182Z,98661.03
2019-05-14T01:23:12.713Z,98646.49
2019-05-14T01:25:44.023Z,98654.67
2019-05-14T01:28:15.751Z,98645.30
2019-05-14T01:30:47.014Z,98637.64
2019-05-14T01:33:21.076Z,98646.59
2019-05-14T01:35:52.524Z,98633.70
2019-05-14T01:38:24.715Z,98623.93
2019-05-14T01:40:56.381Z,98622.48
2019-05-14T01:43:28.088Z,98616.92
2019-05-14T01:46:02.049Z,98611.81
2019-05-14T01:48:34.062Z,98606.42
2019-05-14T01:51:05.680Z,98577.59
2019-05-14T01:53:37.660Z,98577.59
2019-05-14T01:56:11.805Z,98576.77
2019-05-14T01:58:43.281Z,98586.09
2019-05-14T02:01:14.823Z,98588.72
2019-05-14T02:03:46.492Z,98588.72
2019-05-14T02:06:17.978Z,98584.25
2019-05-14T02:08:51.535Z,98576.80
2019-05-14T02:11:23.542Z,98569.58
2019-05-14T02:13:55.057Z,98559.30
2019-05-14T02:16:26.984Z,98554.50
2019-05-14T02:19:01.215Z,98554.50
2019-05-14T02:21:32.556Z,98570.45
2019-05-14T02:24:04.793Z,98570.45
2019-05-14T02:26:36.480Z,98585.94
2019-05-14T02:29:08.090Z,98602.80
2019-05-14T02:31:39.647Z,98604.55
2019-05-14T02:34:11.443Z,98621.84
2019-05-14T02:36:43.059Z,98608.14
2019-05-14T02:39:15.123Z,98608.14
2019-05-14T02:41:59.438Z,98591.81
2019-05-14T02:44:31.686Z,98607.59
2019-05-14T02:47:03.091Z,98607.59
2019-05-14T02:49:35.215Z,98614.09
2019-05-14T02:52:09.816Z,98617.59
2019-05-14T02:54:40.724Z,98622.02
2019-05-14T02:57:12.699Z,98622.02
2019-05-14T02:59:44.883Z,98633.03
2019-05-14T03:02:18.806Z,98635.71
2019-05-14T03:04:52.043Z,98630.98
2019-05-14T03:07:23.609Z,98626.34
2019-05-14T03:09:55.507Z,98616.38
2019-05-14T03:12:30.127Z,98616.09
2019-05-14T03:15:00.798Z,98627.56
2019-05-14T03:17:34.720Z,98637.45
2019-05-14T03:20:09.108Z,98659.44
2019-05-14T03:22:54.928Z,98676.47
2019-05-14T03:25:14.194Z,98690.80
2019-05-14T03:27:49.689Z,98688.20
2019-05-14T03:30:23.254Z,98686.40
2019-05-14T03:32:55.029Z,98700.95
2019-05-14T03:35:40.207Z,98700.95
2019-05-14T03:38:00.712Z,98698.70
2019-05-14T03:40:32.734Z,98699.09
2019-05-14T03:43:04.187Z,98692.94
2019-05-14T03:45:38.904Z,98692.94
2019-05-14T03:48:10.274Z,98697.28
2019-05-14T03:50:42.367Z,98694.06
2019-05-14T03:53:14.107Z,98701.07
2019-05-14T03:55:45.741Z,98700.27
2019-05-14T03:58:21.180Z,98701.11
2019-05-14T04:00:59.851Z,98703.30
2019-05-14T04:03:31.877Z,98722.06
2019-05-14T04:06:03.882Z,98724.97
2019-05-14T04:08:39.148Z,98724.97
2019-05-14T04:11:12.332Z,98729.58
2019-05-14T04:13:49.629Z,98742.38
2019-05-14T04:16:23.810Z,98735.50
2019-05-14T04:18:59.422Z,98735.95
2019-05-14T04:21:33.287Z,98735.95
2019-05-14T04:24:05.678Z,98730.41
2019-05-14T04:26:56.463Z,98721.11
2019-05-14T04:29:19.675Z,98721.11
2019-05-14T04:31:52.411Z,98719.79
2019-05-14T04:34:24.157Z,98715.75
2019-05-14T04:36:59.087Z,98715.75
2019-05-14T04:39:30.789Z,98706.54
2019-05-14T04:42:03.405Z,98706.80
2019-05-14T04:44:34.967Z,98706.44
2019-05-14T04:47:25.824Z,98704.48
2019-05-14T04:49:40.172Z,98708.89
2019-05-14T04:52:11.889Z,98708.79
2019-05-14T04:54:43.405Z,98708.79
2019-05-14T04:57:15.514Z,98707.40
2019-05-14T04:59:49.400Z,98706.78
2019-05-14T05:02:23.480Z,98705.09
2019-05-14T05:04:54.950Z,98709.79
2019-05-14T05:07:29.522Z,98710.00
2019-05-14T05:10:01.019Z,98716.80
2019-05-14T05:12:33.081Z,98713.94
2019-05-14T05:15:04.832Z,98712.89
2019-05-14T05:17:44.307Z,98713.67
2019-05-14T05:20:10.375Z,98721.72
2019-05-14T05:22:42.291Z,98721.72
2019-05-14T05:25:14.040Z,98719.31
2019-05-14T05:27:48.548Z,98721.03
2019-05-14T05:30:20.228Z,98721.34
2019-05-14T05:32:54.296Z,98724.77
2019-05-14T05:35:29.000Z,98719.41
2019-05-14T05:38:00.327Z,98717.43
2019-05-14T05:40:32.780Z,98717.43
2019-05-14T05:43:04.517Z,98713.09
2019-05-14T05:45:37.957Z,98705.20
2019-05-14T05:48:10.276Z,98707.19
2019-05-14T05:50:42.143Z,98707.19
2019-05-14T05:53:13.447Z,98702.88
2019-05-14T05:55:45.276Z,98698.19
2019-05-14T05:58:19.507Z,98694.39
2019-05-14T06:00:50.321Z,98687.50
2019-05-14T06:03:21.895Z,98697.81
2019-05-14T06:05:53.542Z,98692.06
2019-05-14T06:08:25.157Z,98685.77
2019-05-14T06:10:58.899Z,98683.39
2019-05-14T06:13:30.017Z,98684.00
2019-05-14T06:16:01.608Z,98673.45
2019-05-14T06:18:34.550Z,98673.45
2019-05-14T06:21:06.348Z,98660.66
2019-05-14T06:23:38.806Z,98660.66
2019-05-14T06:26:11.376Z,98659.52
2019-05-14T06:28:43.301Z,98647.43
2019-05-14T06:31:15.087Z,98647.43
2019-05-14T06:33:48.648Z,98650.52
2019-05-14T06:36:20.562Z,98644.20
2019-05-14T06:38:52.404Z,98644.20
2019-05-14T06:41:24.316Z,98644.14
2019-05-14T06:43:58.623Z,98630.58
2019-05-14T06:46:29.714Z,98630.58
2019-05-14T06:49:02.008Z,98621.63
2019-05-14T06:51:33.913Z,98621.63
2019-05-14T06:54:05.933Z,98620.33
2019-05-14T06:56:38.583Z,98616.27
2019-05-14T06:59:10.488Z,98611.81
2019-05-14T07:01:42.486Z,98611.81
2019-05-14T07:04:14.379Z,98607.89
2019-05-14T07:06:48.403Z,98607.89
2019-05-14T07:09:20.021Z,98601.40
2019-05-14T07:11:51.810Z,98599.04
2019-05-14T07:14:28.252Z,98589.02
2019-05-14T07:17:00.982Z,98591.20
2019-05-14T07:19:33.183Z,98578.31
2019-05-14T07:22:05.018Z,98578.31
2019-05-14T07:24:40.641Z,98575.08
2019-05-14T07:27:12.601Z,98576.23
2019-05-14T07:29:44.276Z,98562.91
2019-05-14T07:32:18.912Z,98561.93
2019-05-14T07:34:49.978Z,98559.69
2019-05-14T07:37:22.170Z,98559.69
2019-05-14T07:39:53.895Z,98559.23
2019-05-14T07:42:25.799Z,98557.12
2019-05-14T07:44:58.927Z,98560.47
2019-05-14T07:47:30.814Z,98549.69
2019-05-14T07:50:03.265Z,98549.69
2019-05-14T07:52:35.192Z,98552.70
2019-05-14T07:55:09.235Z,98547.77
2019-05-14T07:57:42.153Z,98542.18
2019-05-14T08:00:14.580Z,98534.22
2019-05-14T08:02:49.115Z,98534.22
2019-05-14T08:05:20.886Z,98528.55
2019-05-14T08:07:52.688Z,98529.05
2019-05-14T08:10:24.513Z,98520.09
2019-05-14T08:12:58.757Z,98522.63
2019-05-14T08:15:30.253Z,98513.98
2019-05-14T08:18:01.995Z,98506.20
2019-05-14T08:20:38.017Z,98510.23
2019-05-14T08:23:09.921Z,98510.23
2019-05-14T08:25:41.493Z,98506.64
2019-05-14T08:28:14.237Z,98509.08
2019-05-14T08:30:49.102Z,98501.39
2019-05-14T08:33:25.987Z,98506.19
2019-05-14T08:35:58.214Z,98505.61
2019-05-14T08:38:29.982Z,98503.34
2019-05-14T08:41:01.930Z,98503.34
2019-05-14T08:43:33.598Z,98508.21
2019-05-14T08:46:05.349Z,98504.34
2019-05-14T08:48:38.939Z,98506.75
2019-05-14T08:51:10.738Z,98506.16
2019-05-14T08:53:42.858Z,98506.45
2019-05-14T08:56:14.685Z,98504.90
2019-05-14T08:58:49.148Z,98501.27
2019-05-14T09:01:23.338Z,98496.12
2019-05-14T09:03:55.288Z,98483.06
2019-05-14T09:06:28.932Z,98480.11
2019-05-14T09:09:00.739Z,98471.83
2019-05-14T09:11:36.601Z,98469.55
2019-05-14T09:14:10.932Z,98473.79
2019-05-14T09:16:46.770Z,98473.79
2019-05-14T09:19:19.086Z,98468.45
2019-05-14T09:21:50.404Z,98468.45
2019-05-14T09:24:22.573Z,98462.59
2019-05-14T09:26:54.510Z,98462.59
2019-05-14T09:29:29.148Z,98470.08
2019-05-14T09:32:00.382Z,98456.98
2019-05-14T09:34:32.825Z,98457.59
2019-05-14T09:37:05.346Z,98455.60
2019-05-14T09:39:48.654Z,98454.16
2019-05-14T09:42:21.698Z,98454.16
2019-05-14T09:45:04.460Z,98449.27
2019-05-14T09:47:59.239Z,98441.72
2019-05-14T09:50:51.247Z,98439.77
2019-05-14T09:53:38.420Z,98440.97
2019-05-14T09:56:31.261Z,98434.11
2019-05-14T09:59:18.508Z,98431.55
2019-05-14T10:02:08.968Z,98429.36
2019-05-14T10:04:59.520Z,98414.70
2019-05-14T10:07:45.156Z,98404.53
2019-05-14T10:10:36.222Z,98404.53
2019-05-14T10:13:21.451Z,98404.12
2019-05-14T10:16:06.104Z,98396.62
2019-05-14T10:18:52.956Z,98391.08
2019-05-14T10:21:38.785Z,98392.30
2019-05-14T10:24:24.125Z,98395.28
2019-05-14T10:27:18.789Z,98387.74
2019-05-14T10:30:01.999Z,98390.94
2019-05-14T10:32:49.254Z,98389.45
2019-05-14T10:35:23.457Z,98387.41
2019-05-14T10:37:55.731Z,98387.41
2019-05-14T10:40:29.210Z,98386.08
2019-05-14T10:43:01.540Z,98384.03
2019-05-14T10:45:33.461Z,98379.63
2019-05-14T10:48:05.322Z,98379.78
2019-05-14T10:50:55.110Z,98382.98
2019-05-14T10:53:10.744Z,98381.02
2019-05-14T10:55:42.295Z,98381.59
2019-05-14T10:58:14.313Z,98368.70
2019-05-14T11:00:46.104Z,98368.70
2019-05-14T11:03:18.770Z,98377.77
2019-05-14T11:05:50.204Z,98373.31
2019-05-14T11:08:22.026Z,98373.31
2019-05-14T11:10:53.881Z,98371.05
2019-05-14T11:13:28.943Z,98369.30
2019-05-14T11:15:59.809Z,98369.39
2019-05-14T11:18:31.795Z,98364.69
2019-05-14T11:21:18.903Z,98372.44
2019-05-14T11:23:38.668Z,98367.44
2019-05-14T11:26:12.029Z,98367.44
2019-05-14T11:28:43.765Z,98365.82
2019-05-14T11:31:15.650Z,98362.42
2019-05-14T11:33:49.691Z,98362.42
2019-05-14T11:36:20.811Z,98364.67
2019-05-14T11:39:12.655Z,98366.27
2019-05-14T11:41:44.911Z,98360.70
2019-05-14T11:44:17.021Z,98362.78
2019-05-14T11:46:56.968Z,98358.80
2019-05-14T11:49:22.222Z,98365.67
2019-05-14T11:52:04.148Z,98366.59
2019-05-14T11:54:29.203Z,98362.52
2019-05-14T11:57:00.602Z,98366.20
2019-05-14T11:59:32.190Z,98364.84
2019-05-14T12:02:03.715Z,98368.69
2019-05-14T12:04:35.335Z,98369.28
2019-05-14T12:07:09.379Z,98365.58
2019-05-14T12:09:40.540Z,98367.33
2019-05-14T12:12:12.899Z,98367.33
2019-05-14T12:14:44.518Z,98369.34
2019-05-14T12:17:19.311Z,98371.77
2019-05-14T12:19:50.814Z,98372.54
2019-05-14T12:22:22.402Z,98366.03
2019-05-14T12:24:54.812Z,98367.94
2019-05-14T12:27:26.388Z,98367.94
2019-05-14T12:29:59.849Z,98371.25
2019-05-14T12:32:31.303Z,98374.14
2019-05-14T12:35:03.396Z,98372.49
2019-05-14T12:37:35.186Z,98372.95
2019-05-14T12:40:08.774Z,98378.61
2019-05-14T12:42:40.765Z,98371.27
2019-05-14T12:45:13.085Z,98371.27
2019-05-14T12:47:44.801Z,98378.67
2019-05-14T12:50:17.719Z,98370.66
2019-05-14T12:52:49.809Z,98370.66
2019-05-14T12:55:21.237Z,98372.16
2019-05-14T12:57:53.172Z,98376.32
2019-05-14T13:00:25.155Z,98376.32
2019-05-14T13:02:58.513Z,98376.47
2019-05-14T13:05:30.324Z,98378.57
2019-05-14T13:08:02.218Z,98376.92
2019-05-14T13:10:33.824Z,98377.23
2019-05-14T13:13:07.921Z,98381.21
2019-05-14T13:15:39.507Z,98381.21
2019-05-14T13:18:11.280Z,98385.33
2019-05-14T13:20:42.867Z,98385.33
2019-05-14T13:23:14.602Z,98385.52
2019-05-14T13:25:46.581Z,98385.52
2019-05-14T13:28:19.437Z,98391.41
2019-05-14T13:30:51.336Z,98395.42
2019-05-14T13:33:23.412Z,98400.34
2019-05-14T13:35:55.364Z,98400.34
2019-05-14T13:38:27.176Z,98400.10
2019-05-14T13:40:59.451Z,98397.56
2019-05-14T13:43:33.858Z,98397.76
2019-05-14T13:46:10.429Z,98402.79
2019-05-14T13:48:43.587Z,98403.94
2019-05-14T13:51:15.593Z,98409.47
2019-05-14T13:53:49.641Z,98410.69
2019-05-14T13:56:28.191Z,98410.54
2019-05-14T13:59:03.147Z,98420.50
2019-05-14T14:01:35.105Z,98420.50
2019-05-14T14:04:18.351Z,98427.25
2019-05-14T14:06:52.415Z,98427.25
2019-05-14T14:09:28.443Z,98430.55
2019-05-14T14:12:01.619Z,98433.20
2019-05-14T14:14:33.376Z,98433.20
2019-05-14T14:17:05.198Z,98439.98
2019-05-14T14:19:38.923Z,98433.20
2019-05-14T14:22:10.249Z,98440.97
2019-05-14T14:24:50.143Z,98442.44
2019-05-14T14:27:19.943Z,98442.29
2019-05-14T14:29:51.676Z,98442.29
2019-05-14T14:32:23.324Z,98449.45
2019-05-14T14:34:55.353Z,98454.55
2019-05-14T14:37:28.602Z,98457.34
2019-05-14T14:40:00.894Z,98463.54
2019-05-14T14:42:35.555Z,98463.54
2019-05-14T14:45:08.588Z,98463.73
2019-05-14T14:47:40.376Z,98470.77
2019-05-14T14:50:19.414Z,98470.70
2019-05-14T14:52:51.574Z,98472.62
2019-05-14T14:55:30.216Z,98475.11
2019-05-14T14:58:00.099Z,98475.11
2019-05-14T15:00:33.396Z,98484.05
2019-05-14T15:03:05.411Z,98491.34
2019-05-14T15:05:39.004Z,98491.34
2019-05-14T15:08:12.223Z,98493.33
2019-05-14T15:10:44.872Z,98493.28
2019-05-14T15:13:17.403Z,98493.28
2019-05-14T15:15:52.581Z,98504.80
2019-05-14T15:18:24.145Z,98506.00
2019-05-14T15:20:58.691Z,98506.00
2019-05-14T15:23:29.680Z,98505.59
2019-05-14T15:26:01.516Z,98505.09
2019-05-14T15:28:33.198Z,98505.09
2019-05-14T15:31:05.220Z,98512.73
2019-05-14T15:33:37.068Z,98507.02
2019-05-14T15:36:09.312Z,98506.16
2019-05-14T15:38:41.287Z,98516.24
2019-05-14T15:41:13.725Z,98519.05
2019-05-14T15:43:45.707Z,98521.14
2019-05-14T15:46:18.557Z,98521.14
2019-05-14T15:48:50.694Z,98525.78
2019-05-14T15:51:22.480Z,98524.20
2019-05-14T15:54:07.261Z,98527.90
2019-05-14T15:56:29.888Z,98527.90
2019-05-14T15:59:01.428Z,98532.17
2019-05-14T16:01:33.821Z,98532.17
2019-05-14T16:04:05.571Z,98539.74
2019-05-14T16:06:38.624Z,98540.94
2019-05-14T16:09:10.822Z,98540.64
2019-05-14T16:11:42.577Z,98540.64
2019-05-14T16:14:14.492Z,98550.38
2019-05-14T16:16:48.526Z,98550.38
2019-05-14T16:19:19.211Z,98551.94
2019-05-14T16:21:51.005Z,98551.94
2019-05-14T16:24:22.725Z,98555.52
2019-05-14T16:27:14.278Z,98556.26
2019-05-14T16:29:46.327Z,98564.73
2019-05-14T18:01:21.439Z,98567.91
2019-05-14T18:03:53.880Z,98568.59
2019-05-14T18:06:28.374Z,98568.59
2019-05-14T18:08:59.767Z,98569.48
2019-05-14T18:11:39.938Z,98572.50
2019-05-14T18:14:11.812Z,98572.50
2019-05-14T18:16:44.029Z,98572.80
2019-05-14T18:19:18.159Z,98569.54
2019-05-14T18:21:49.531Z,98561.89
2019-05-14T18:24:28.329Z,98563.55
2019-05-14T18:27:02.718Z,98558.65
2019-05-14T18:29:34.797Z,98559.81
2019-05-14T18:32:09.014Z,98564.39
2019-05-14T18:34:41.903Z,98564.39
2019-05-14T18:37:18.183Z,98554.86
2019-05-14T18:39:49.341Z,98555.87
2019-05-14T18:42:22.817Z,98560.55
2019-05-14T18:44:54.488Z,98555.06
2019-05-14T18:47:28.534Z,98555.06
2019-05-14T18:49:59.816Z,98554.53
2019-05-14T18:52:31.689Z,98553.37
2019-05-14T18:55:03.368Z,98553.37
2019-05-14T18:57:35.112Z,98551.89
2019-05-14T19:00:06.979Z,98553.45
2019-05-14T19:02:39.785Z,98553.45
2019-05-14T19:05:11.972Z,98542.97
2019-05-14T19:07:43.569Z,98552.30
2019-05-14T19:10:15.431Z,98543.38
2019-05-14T19:12:49.976Z,98541.83
2019-05-14T19:15:20.709Z,98540.44
2019-05-14T19:17:52.905Z,98540.44
2019-05-14T19:20:24.844Z,98542.55
2019-05-14T19:22:56.550Z,98542.55
2019-05-14T19:25:27.995Z,98535.84
2019-05-14T19:27:59.819Z,98539.88
2019-05-14T19:30:31.371Z,98539.88
2019-05-14T19:33:03.316Z,98535.78
2019-05-14T19:35:35.403Z,98545.70
2019-05-14T19:38:08.895Z,98548.11
2019-05-14T19:40:40.633Z,98547.83
2019-05-14T19:43:12.580Z,98545.59
2019-05-14T19:45:44.088Z,98537.62
2019-05-14T19:48:15.683Z,98537.62
2019-05-14T19:50:49.100Z,98532.67
2019-05-14T19:53:21.005Z,98527.02
2019-05-14T19:55:52.621Z,98534.01
2019-05-14T19:58:24.309Z,98530.63
2019-05-14T20:00:56.330Z,98530.63
2019-05-14T20:03:29.208Z,98529.08
2019-05-14T20:06:01.664Z,98532.16
2019-05-14T20:08:33.755Z,98527.92
2019-05-14T20:11:05.704Z,98538.17
2019-05-14T20:13:39.104Z,98538.17
2019-05-14T20:16:11.161Z,98535.78
2019-05-14T20:18:42.928Z,98535.88
2019-05-14T20:21:14.674Z,98536.16
2019-05-14T20:23:48.119Z,98531.96
2019-05-14T20:26:20.034Z,98533.03
2019-05-14T20:28:52.148Z,98533.03
2019-05-14T20:31:24.071Z,98522.92
2019-05-14T20:33:56.009Z,98522.92
2019-05-14T20:36:28.267Z,98526.17
2019-05-14T20:38:59.740Z,98517.16
2019-05-14T20:41:31.318Z,98521.29
2019-05-14T20:44:02.587Z,98521.29
2019-05-14T20:46:34.439Z,98517.11
2019-05-14T20:49:08.797Z,98515.10
2019-05-14T20:51:40.504Z,98515.10
2019-05-14T20:54:12.511Z,98511.02
2019-05-14T20:56:44.130Z,98511.02
2019-05-14T20:59:15.560Z,98522.78
2019-05-14T21:01:47.288Z,98511.94
2019-05-14T21:04:19.065Z,98506.59
2019-05-14T21:06:51.452Z,98506.59
2019-05-14T21:09:23.078Z,98501.52
2019-05-14T21:11:56.457Z,98509.04
2019-05-14T21:14:28.076Z,98509.04
2019-05-14T21:16:59.889Z,98508.34
2019-05-14T21:19:31.488Z,98508.03
2019-05-14T21:22:03.213Z,98510.02
2019-05-14T21:24:34.944Z,98510.42
2019-05-14T21:27:09.125Z,98510.42
2019-05-14T21:29:40.186Z,98509.28
2019-05-14T21:32:12.131Z,98505.88
2019-05-14T21:34:43.511Z,98503.05
2019-05-14T21:37:15.627Z,98503.05
2019-05-14T21:39:48.926Z,98501.52
2019-05-14T21:42:20.363Z,98505.19
2019-05-14T21:44:51.994Z,98505.19
2019-05-14T21:47:23.717Z,98508.00
2019-05-14T21:49:55.430Z,98508.16
2019-05-14T21:52:28.924Z,98508.16
2019-05-14T21:55:00.257Z,98496.40
2019-05-14T21:57:31.729Z,98499.73
2019-05-14T22:00:03.365Z,98499.73
2019-05-14T22:02:38.402Z,98500.81
2019-05-14T22:05:09.819Z,98509.36
2019-05-14T22:07:42.461Z,98509.36
2019-05-14T22:10:14.413Z,98506.09
2019-05-14T22:12:48.571Z,98500.94
2019-05-14T22:15:20.192Z,98506.82
2019-05-14T22:17:51.747Z,98509.66
2019-05-14T22:20:23.576Z,98511.81
2019-05-14T22:22:55.448Z,98511.81
2019-05-14T22:25:28.477Z,98514.22
2019-05-14T22:28:11.142Z,98512.97
2019-05-14T22:30:33.811Z,98511.15
2019-05-14T22:33:08.187Z,98510.11
2019-05-14T22:35:39.779Z,98510.11
2019-05-14T22:38:11.853Z,98519.84
2019-05-14T22:40:44.182Z,98523.03
2019-05-14T22:43:18.163Z,98512.00
2019-05-14T22:45:49.283Z,98512.00
2019-05-14T22:48:21.256Z,98517.48
2019-05-14T22:50:53.046Z,98517.48
2019-05-14T22:53:25.022Z,98518.45
2019-05-14T22:55:58.611Z,98520.32
2019-05-14T22:58:30.505Z,98520.32
2019-05-14T23:01:14.207Z,98525.42
2019-05-14T23:03:39.572Z,98525.42
2019-05-14T23:06:11.554Z,98536.09
2019-05-14T23:08:43.406Z,98536.09
2019-05-14T23:11:15.870Z,98536.09
2019-05-14T23:13:48.877Z,98544.58
2019-05-14T23:16:33.132Z,98544.17
2019-05-14T23:18:54.327Z,98543.02
2019-05-14T23:21:28.365Z,98546.27
2019-05-14T23:23:59.842Z,98545.02
2019-05-14T23:26:32.724Z,98545.02
2019-05-14T23:29:04.286Z,98553.39
2019-05-14T23:31:38.259Z,98549.12
2019-05-14T23:34:09.519Z,98557.23
2019-05-14T23:36:41.486Z,98556.50
2019-05-14T23:39:13.361Z,98556.50
2019-05-14T23:41:45.854Z,98563.92
2019-05-14T23:44:19.114Z,98560.04
2019-05-14T23:46:51.389Z,98571.37
2019-05-14T23:49:23.062Z,98571.37
2019-05-14T23:51:54.712Z,98563.53
2019-05-14T23:54:26.308Z,98568.20
2019-05-14T23:56:58.855Z,98576.86
2019-05-14T23:59:32.253Z,98576.23
